Time;durP1;ratioP1;P1;durP2;ratioP2;P2;SDS_P1;SDS_P2;PMS_P1;PMS_P2;Temp;Humidity;BMP_temperature;BMP_pressure;BME280_temperature;BME280_humidity;BME280_pressure;Samples;Min_cycle;Max_cycle;Signal;HPM_P1;HPM_P2
2023/09/03 00:02:14;;;;;;;8.73;7.80;;;;;;;;;;5018756;28;20211;-75
2023/09/03 00:04:40;;;;;;;8.20;7.50;;;;;;;;;;5018728;28;20181;-75
2023/09/03 00:07:06;;;;;;;8.17;7.37;;;;;;;;;;5018786;28;20296;-75
2023/09/03 00:09:33;;;;;;;8.33;7.53;;;;;;;;;;5017987;28;20271;-74
2023/09/03 00:11:59;;;;;;;10.90;7.67;;;;;;;;;;5001826;28;20184;-74
2023/09/03 00:14:25;;;;;;;10.93;7.63;;;;;;;;;;4993832;28;20207;-75
2023/09/03 00:16:51;;;;;;;9.30;7.33;;;;;;;;;;5019725;28;20256;-75
2023/09/03 00:19:17;;;;;;;9.47;7.63;;;;;;;;;;5016808;28;20184;-75
2023/09/03 00:21:44;;;;;;;9.47;7.97;;;;;;;;;;5017601;28;20185;-75
2023/09/03 00:24:10;;;;;;;8.07;7.27;;;;;;;;;;5018181;28;20177;-75
2023/09/03 00:26:36;;;;;;;12.00;8.53;;;;;;;;;;5018493;28;20307;-76
2023/09/03 00:29:02;;;;;;;10.47;8.90;;;;;;;;;;5035265;28;20169;-75
2023/09/03 00:31:28;;;;;;;9.53;8.57;;;;;;;;;;5018132;28;20243;-76
2023/09/03 00:33:54;;;;;;;10.60;8.83;;;;;;;;;;5035058;28;20172;-75
2023/09/03 00:36:20;;;;;;;9.97;8.47;;;;;;;;;;5018054;28;20191;-75
2023/09/03 00:38:50;;;;;;;11.37;8.63;;;;;;;;;;5018238;28;20192;-75
2023/09/03 00:41:16;;;;;;;10.33;8.93;;;;;;;;;;5036651;28;20188;-75
2023/09/03 00:43:42;;;;;;;9.97;8.77;;;;;;;;;;5015835;28;20192;-75
2023/09/03 00:46:09;;;;;;;10.47;8.90;;;;;;;;;;5017774;28;20307;-75
2023/09/03 00:48:35;;;;;;;11.93;9.17;;;;;;;;;;5035577;28;20212;-75
2023/09/03 00:51:03;;;;;;;10.43;9.33;;;;;;;;;;5017990;28;20227;-75
2023/09/03 00:53:33;;;;;;;10.23;9.13;;;;;;;;;;5018227;28;20176;-75
2023/09/03 00:55:59;;;;;;;12.67;9.57;;;;;;;;;;5023632;28;20276;-75
2023/09/03 00:58:26;;;;;;;10.70;9.57;;;;;;;;;;5017146;28;20252;-75
2023/09/03 01:00:52;;;;;;;11.67;9.23;;;;;;;;;;5011233;28;20185;-75
2023/09/03 01:03:19;;;;;;;10.90;9.80;;;;;;;;;;5003870;28;20189;-75
2023/09/03 01:05:45;;;;;;;10.60;8.70;;;;;;;;;;5013374;28;20285;-75
2023/09/03 01:08:11;;;;;;;10.60;9.63;;;;;;;;;;5017226;28;20299;-77
2023/09/03 01:10:40;;;;;;;10.30;9.30;;;;;;;;;;5035380;28;20192;-75
2023/09/03 01:13:08;;;;;;;11.30;9.77;;;;;;;;;;5035911;28;20251;-75
2023/09/03 01:15:38;;;;;;;11.90;10.00;;;;;;;;;;5017375;28;20279;-74
2023/09/03 01:18:14;;;;;;;10.70;9.60;;;;;;;;;;5013993;28;20216;-75
2023/09/03 01:21:04;;;;;;;14.57;9.67;;;;;;;;;;5015466;28;20181;-75
2023/09/03 01:23:42;;;;;;;12.00;9.50;;;;;;;;;;4981058;28;20200;-74
2023/09/03 01:26:12;;;;;;;11.67;9.87;;;;;;;;;;5035198;28;20172;-75
2023/09/03 01:28:39;;;;;;;10.77;9.57;;;;;;;;;;5017613;28;20222;-75
2023/09/03 01:31:11;;;;;;;10.70;9.60;;;;;;;;;;5013834;28;20205;-75
2023/09/03 01:33:42;;;;;;;11.53;10.37;;;;;;;;;;5032653;28;20180;-75
2023/09/03 01:36:09;;;;;;;12.37;9.53;;;;;;;;;;5017287;28;20208;-77
2023/09/03 01:38:39;;;;;;;12.00;10.50;;;;;;;;;;5024992;28;20251;-77
2023/09/03 01:41:06;;;;;;;12.23;10.03;;;;;;;;;;5025231;28;20188;-77
2023/09/03 01:43:33;;;;;;;11.27;10.10;;;;;;;;;;5016355;28;20193;-75
2023/09/03 01:46:06;;;;;;;12.50;10.43;;;;;;;;;;5033781;28;20188;-74
2023/09/03 01:48:38;;;;;;;12.30;10.90;;;;;;;;;;5026695;28;20219;-74
2023/09/03 01:51:26;;;;;;;13.77;10.97;;;;;;;;;;5016830;28;20177;-75
2023/09/03 01:54:06;;;;;;;15.23;11.63;;;;;;;;;;5016990;28;20199;-74
2023/09/03 01:56:35;;;;;;;14.37;11.60;;;;;;;;;;5017085;28;20189;-75
2023/09/03 01:59:04;;;;;;;13.20;11.77;;;;;;;;;;5017791;28;20315;-76
2023/09/03 02:01:32;;;;;;;14.30;12.30;;;;;;;;;;5034148;28;20184;-74
2023/09/03 02:03:59;;;;;;;17.87;13.17;;;;;;;;;;5016787;28;20184;-74
2023/09/03 02:06:25;;;;;;;14.83;13.10;;;;;;;;;;5033725;28;20323;-74
2023/09/03 02:08:51;;;;;;;15.33;13.37;;;;;;;;;;5015076;28;20227;-75
2023/09/03 02:11:17;;;;;;;18.33;14.70;;;;;;;;;;5034297;22;20233;-74
2023/09/03 02:13:43;;;;;;;17.37;13.80;;;;;;;;;;5013758;28;20204;-74
2023/09/03 02:16:09;;;;;;;16.93;13.93;;;;;;;;;;5014588;28;20178;-74
2023/09/03 02:18:35;;;;;;;19.17;14.70;;;;;;;;;;5014192;28;20181;-74
2023/09/03 02:21:01;;;;;;;16.20;14.37;;;;;;;;;;5014075;28;20193;-74
2023/09/03 02:23:27;;;;;;;16.97;14.33;;;;;;;;;;5013964;28;20193;-74
2023/09/03 02:26:00;;;;;;;17.00;14.53;;;;;;;;;;5029828;28;20223;-74
2023/09/03 02:28:27;;;;;;;16.17;14.47;;;;;;;;;;5012537;28;20295;-74
2023/09/03 02:30:53;;;;;;;16.90;15.27;;;;;;;;;;5026710;28;20188;-75
2023/09/03 02:33:19;;;;;;;16.20;14.13;;;;;;;;;;5031215;28;20188;-75
2023/09/03 02:35:45;;;;;;;16.03;14.33;;;;;;;;;;5013232;28;20192;-75
2023/09/03 02:38:11;;;;;;;16.80;14.47;;;;;;;;;;5013390;28;20182;-74
2023/09/03 02:40:37;;;;;;;18.53;14.23;;;;;;;;;;5045451;28;20223;-75
2023/09/03 02:43:04;;;;;;;16.13;14.33;;;;;;;;;;5016423;28;20278;-75
2023/09/03 02:45:30;;;;;;;16.17;14.40;;;;;;;;;;5013824;28;20181;-75
2023/09/03 02:47:56;;;;;;;14.80;13.40;;;;;;;;;;5029668;28;20248;-77
2023/09/03 02:50:22;;;;;;;17.07;14.53;;;;;;;;;;5013258;28;20188;-75
2023/09/03 02:52:51;;;;;;;19.50;14.70;;;;;;;;;;5013152;28;20181;-76
2023/09/03 02:55:17;;;;;;;16.40;14.70;;;;;;;;;;5012809;28;20208;-76
2023/09/03 02:57:43;;;;;;;18.93;15.07;;;;;;;;;;5013630;28;20197;-76
2023/09/03 03:00:10;;;;;;;15.33;13.70;;;;;;;;;;5013567;28;20193;-77
2023/09/03 03:02:36;;;;;;;15.97;14.20;;;;;;;;;;5030003;28;20207;-77
2023/09/03 03:05:03;;;;;;;16.27;13.90;;;;;;;;;;5013646;28;20197;-77
2023/09/03 03:07:29;;;;;;;15.57;13.90;;;;;;;;;;5029417;28;20263;-77
2023/09/03 03:09:55;;;;;;;18.13;14.83;;;;;;;;;;5012690;28;20213;-77
2023/09/03 03:12:21;;;;;;;17.27;14.53;;;;;;;;;;5012848;28;20259;-77
2023/09/03 03:14:48;;;;;;;16.27;14.57;;;;;;;;;;5013561;28;20243;-77
2023/09/03 03:17:14;;;;;;;19.00;14.63;;;;;;;;;;5029143;28;20185;-75
2023/09/03 03:19:40;;;;;;;15.23;13.63;;;;;;;;;;5005084;28;20217;-76
2023/09/03 03:22:06;;;;;;;16.23;13.07;;;;;;;;;;5015929;28;20240;-75
2023/09/03 03:24:32;;;;;;;16.50;13.60;;;;;;;;;;5017503;28;20192;-75
2023/09/03 03:26:58;;;;;;;20.00;14.07;;;;;;;;;;5016173;28;20220;-75
2023/09/03 03:29:24;;;;;;;16.77;13.77;;;;;;;;;;5016350;28;20185;-75
2023/09/03 03:31:51;;;;;;;14.63;12.87;;;;;;;;;;5016942;28;20197;-76
2023/09/03 03:34:17;;;;;;;16.43;13.53;;;;;;;;;;5032351;28;20194;-76
2023/09/03 03:36:43;;;;;;;15.53;13.87;;;;;;;;;;5016336;28;20272;-76
2023/09/03 03:39:09;;;;;;;15.87;14.17;;;;;;;;;;5016007;28;20271;-76
2023/09/03 03:41:37;;;;;;;15.73;13.13;;;;;;;;;;5032436;28;20182;-76
2023/09/03 03:44:03;;;;;;;15.07;12.83;;;;;;;;;;5015704;28;20188;-76
2023/09/03 03:46:29;;;;;;;16.03;12.40;;;;;;;;;;5023789;28;20191;-76
2023/09/03 03:48:55;;;;;;;14.10;12.60;;;;;;;;;;5022991;28;20205;-75
2023/09/03 03:51:21;;;;;;;13.73;12.20;;;;;;;;;;5016038;28;20284;-75
2023/09/03 03:53:49;;;;;;;18.17;13.63;;;;;;;;;;5031924;28;20181;-75
2023/09/03 03:56:15;;;;;;;17.50;13.27;;;;;;;;;;5032411;28;20192;-76
2023/09/03 03:58:41;;;;;;;14.50;13.00;;;;;;;;;;5016666;28;20185;-76
2023/09/03 04:01:30;;;;;;;17.47;13.10;;;;;;;;;;5016652;28;20212;-76
2023/09/03 04:03:57;;;;;;;14.60;13.10;;;;;;;;;;5009741;28;20205;-75
2023/09/03 04:06:23;;;;;;;14.70;13.13;;;;;;;;;;5003007;28;20196;-75
2023/09/03 04:08:49;;;;;;;15.50;13.20;;;;;;;;;;5015289;28;20254;-76
2023/09/03 04:11:19;;;;;;;14.80;12.93;;;;;;;;;;5031250;28;20282;-76
2023/09/03 04:13:45;;;;;;;15.00;12.77;;;;;;;;;;5032349;28;20191;-75
2023/09/03 04:16:14;;;;;;;14.47;12.77;;;;;;;;;;5031737;28;20181;-75
2023/09/03 04:18:40;;;;;;;14.87;12.10;;;;;;;;;;5015144;28;20220;-76
2023/09/03 04:21:06;;;;;;;16.40;13.00;;;;;;;;;;5015979;28;20213;-76
2023/09/03 04:23:33;;;;;;;13.40;11.73;;;;;;;;;;5016454;28;20193;-76
2023/09/03 04:25:59;;;;;;;14.17;11.87;;;;;;;;;;5031809;28;20211;-76
2023/09/03 04:28:25;;;;;;;13.70;12.30;;;;;;;;;;5031930;28;20220;-76
2023/09/03 04:30:55;;;;;;;15.43;11.57;;;;;;;;;;5015062;28;20181;-76
2023/09/03 04:33:21;;;;;;;13.20;11.83;;;;;;;;;;5031613;28;20280;-76
2023/09/03 04:35:47;;;;;;;12.77;11.47;;;;;;;;;;5015121;28;20254;-76
2023/09/03 04:38:13;;;;;;;12.70;10.73;;;;;;;;;;5031332;28;20209;-76
2023/09/03 04:40:43;;;;;;;12.70;11.17;;;;;;;;;;5015371;28;20193;-78
2023/09/03 04:43:09;;;;;;;12.67;10.97;;;;;;;;;;5009441;28;20197;-78
2023/09/03 04:45:35;;;;;;;13.27;11.80;;;;;;;;;;5014945;28;20185;-78
2023/09/03 04:48:02;;;;;;;12.07;10.97;;;;;;;;;;5014488;28;20223;-78
2023/09/03 04:50:28;;;;;;;12.23;10.93;;;;;;;;;;5014950;28;20185;-78
2023/09/03 04:52:57;;;;;;;13.00;11.73;;;;;;;;;;5014703;28;20193;-78
2023/09/03 04:55:23;;;;;;;13.43;11.60;;;;;;;;;;5015074;28;20188;-78
2023/09/03 04:57:49;;;;;;;12.57;11.27;;;;;;;;;;5017410;28;20193;-75
2023/09/03 05:00:16;;;;;;;13.07;11.10;;;;;;;;;;5014513;28;20186;-75
2023/09/03 05:02:42;;;;;;;13.60;11.87;;;;;;;;;;5013567;28;20185;-75
2023/09/03 05:05:08;;;;;;;15.80;11.97;;;;;;;;;;5014551;28;20193;-75
2023/09/03 05:07:34;;;;;;;13.13;11.73;;;;;;;;;;5013986;28;20220;-75
2023/09/03 05:10:00;;;;;;;13.60;12.13;;;;;;;;;;5030435;28;20185;-75
2023/09/03 05:12:26;;;;;;;14.57;13.07;;;;;;;;;;5030573;28;20235;-76
2023/09/03 05:14:52;;;;;;;14.70;12.60;;;;;;;;;;5030862;28;20212;-76
2023/09/03 05:17:20;;;;;;;13.23;11.93;;;;;;;;;;5032335;28;20231;-77
2023/09/03 05:19:46;;;;;;;13.70;12.40;;;;;;;;;;5030505;28;20197;-76
2023/09/03 05:22:12;;;;;;;13.90;11.73;;;;;;;;;;5013816;28;20204;-76
2023/09/03 05:24:38;;;;;;;18.43;13.97;;;;;;;;;;5013969;28;20191;-76
2023/09/03 05:27:04;;;;;;;15.80;14.17;;;;;;;;;;5013770;28;20213;-77
2023/09/03 05:29:30;;;;;;;14.83;13.20;;;;;;;;;;5029848;28;20275;-75
2023/09/03 05:31:56;;;;;;;15.37;13.70;;;;;;;;;;5013627;28;20205;-75
2023/09/03 05:34:23;;;;;;;15.80;14.10;;;;;;;;;;5014268;28;20210;-75
2023/09/03 05:36:49;;;;;;;15.17;13.17;;;;;;;;;;5013730;28;20276;-75
2023/09/03 05:39:15;;;;;;;14.83;13.37;;;;;;;;;;5015251;28;20189;-75
2023/09/03 05:41:41;;;;;;;15.33;13.50;;;;;;;;;;5013989;28;20268;-75
2023/09/03 05:44:09;;;;;;;15.27;13.20;;;;;;;;;;5013667;28;20220;-75
2023/09/03 05:46:35;;;;;;;14.37;12.77;;;;;;;;;;5013939;28;20200;-76
2023/09/03 05:49:01;;;;;;;15.90;14.20;;;;;;;;;;5014393;28;20219;-76
2023/09/03 05:51:27;;;;;;;16.83;14.00;;;;;;;;;;5013327;28;20190;-76
2023/09/03 05:53:53;;;;;;;16.67;14.97;;;;;;;;;;5013597;28;20192;-76
2023/09/03 05:56:20;;;;;;;19.00;14.37;;;;;;;;;;5013308;28;20197;-76
2023/09/03 05:58:46;;;;;;;14.30;12.77;;;;;;;;;;5017815;28;20189;-75
2023/09/03 06:01:12;;;;;;;18.20;14.20;;;;;;;;;;5013607;28;20200;-76
2023/09/03 06:03:39;;;;;;;16.30;13.40;;;;;;;;;;5014190;28;20193;-76
2023/09/03 06:06:06;;;;;;;16.53;13.27;;;;;;;;;;5017904;28;20196;-76
2023/09/03 06:08:33;;;;;;;17.93;14.17;;;;;;;;;;5014007;28;20235;-75
2023/09/03 06:10:59;;;;;;;15.17;13.60;;;;;;;;;;5014319;28;20201;-75
2023/09/03 06:13:29;;;;;;;15.40;13.20;;;;;;;;;;5034444;28;20180;-76
2023/09/03 06:15:55;;;;;;;16.80;13.83;;;;;;;;;;5033240;28;20181;-76
2023/09/03 06:18:22;;;;;;;17.23;14.47;;;;;;;;;;5034352;28;20204;-75
2023/09/03 06:20:48;;;;;;;15.80;14.10;;;;;;;;;;5033220;28;20259;-77
2023/09/03 06:23:17;;;;;;;19.33;16.00;;;;;;;;;;5033594;28;20185;-77
2023/09/03 06:25:44;;;;;;;17.63;15.83;;;;;;;;;;5033487;28;20227;-77
2023/09/03 06:28:10;;;;;;;18.37;15.50;;;;;;;;;;5032423;28;20204;-77
2023/09/03 06:30:36;;;;;;;17.73;15.67;;;;;;;;;;5016500;28;20212;-77
2023/09/03 06:33:02;;;;;;;18.30;16.03;;;;;;;;;;5032678;28;20181;-77
2023/09/03 06:35:28;;;;;;;18.43;16.33;;;;;;;;;;5033677;28;20196;-77
2023/09/03 06:37:55;;;;;;;17.40;15.60;;;;;;;;;;5032798;28;20180;-76
2023/09/03 06:40:22;;;;;;;17.67;15.77;;;;;;;;;;5033868;28;20187;-76
2023/09/03 06:42:48;;;;;;;17.17;14.67;;;;;;;;;;5032679;28;20193;-76
2023/09/03 06:45:14;;;;;;;17.43;15.03;;;;;;;;;;5033977;28;20181;-76
2023/09/03 06:47:40;;;;;;;16.10;14.27;;;;;;;;;;5016574;28;20216;-76
2023/09/03 06:50:07;;;;;;;18.10;15.13;;;;;;;;;;5033961;28;20253;-76
2023/09/03 06:52:33;;;;;;;17.37;15.57;;;;;;;;;;5016368;28;20188;-77
2023/09/03 06:54:59;;;;;;;16.50;14.80;;;;;;;;;;5036918;28;20188;-79
2023/09/03 06:57:25;;;;;;;17.20;14.90;;;;;;;;;;5038366;28;20184;-77
2023/09/03 06:59:52;;;;;;;14.93;13.33;;;;;;;;;;5020802;28;20177;-77
2023/09/03 07:02:18;;;;;;;18.63;16.53;;;;;;;;;;5036240;28;20208;-77
2023/09/03 07:04:43;;;;;;;18.80;16.80;;;;;;;;;;5019599;28;20417;-78
2023/09/03 07:07:09;;;;;;;17.33;15.47;;;;;;;;;;5036011;28;20208;-78
2023/09/03 07:09:36;;;;;;;17.67;15.80;;;;;;;;;;5043305;28;20196;-76
2023/09/03 07:12:02;;;;;;;17.03;15.37;;;;;;;;;;5036458;28;20328;-76
2023/09/03 07:14:32;;;;;;;18.07;16.23;;;;;;;;;;5037386;28;20199;-76
2023/09/03 07:16:58;;;;;;;18.00;16.13;;;;;;;;;;5036525;28;20268;-76
2023/09/03 07:19:25;;;;;;;18.73;16.10;;;;;;;;;;5036438;28;20180;-76
2023/09/03 07:21:51;;;;;;;20.47;15.97;;;;;;;;;;5037374;28;20267;-76
2023/09/03 07:24:17;;;;;;;17.37;15.57;;;;;;;;;;5036498;28;20181;-76
2023/09/03 07:26:43;;;;;;;19.60;16.77;;;;;;;;;;5036588;28;20177;-76
2023/09/03 07:29:09;;;;;;;18.00;16.20;;;;;;;;;;5037478;28;20216;-76
2023/09/03 07:31:40;;;;;;;17.73;15.83;;;;;;;;;;5036524;28;20219;-76
2023/09/03 07:34:07;;;;;;;19.67;15.80;;;;;;;;;;5035468;28;20208;-76
2023/09/03 07:36:34;;;;;;;18.00;15.80;;;;;;;;;;5036954;28;20315;-76
2023/09/03 07:39:00;;;;;;;18.63;16.73;;;;;;;;;;5034643;28;20176;-76
2023/09/03 07:41:26;;;;;;;18.17;16.13;;;;;;;;;;5018108;28;20173;-76
2023/09/03 07:43:52;;;;;;;17.50;15.80;;;;;;;;;;5035319;28;20239;-76
2023/09/03 07:46:18;;;;;;;17.87;15.60;;;;;;;;;;5019867;28;20212;-76
2023/09/03 07:48:44;;;;;;;17.13;15.43;;;;;;;;;;5035975;28;20287;-76
2023/09/03 07:51:13;;;;;;;17.50;15.70;;;;;;;;;;5019521;28;20173;-76
2023/09/03 07:53:40;;;;;;;18.10;16.20;;;;;;;;;;5020423;28;20280;-76
2023/09/03 07:56:06;;;;;;;17.73;15.70;;;;;;;;;;5036014;28;20276;-76
2023/09/03 07:58:32;;;;;;;16.27;14.60;;;;;;;;;;5019503;28;20279;-76
2023/09/03 08:00:58;;;;;;;16.43;14.83;;;;;;;;;;5021557;28;20219;-76
2023/09/03 08:03:26;;;;;;;17.53;15.63;;;;;;;;;;5019668;28;20188;-76
2023/09/03 08:05:52;;;;;;;15.83;14.23;;;;;;;;;;5019185;28;20188;-76
2023/09/03 08:08:18;;;;;;;16.20;14.47;;;;;;;;;;5035346;28;20213;-76
2023/09/03 08:10:44;;;;;;;17.33;15.40;;;;;;;;;;5035761;28;20216;-76
2023/09/03 08:13:10;;;;;;;15.20;13.57;;;;;;;;;;5018753;28;20259;-76
2023/09/03 08:15:36;;;;;;;16.20;14.33;;;;;;;;;;5036522;28;20185;-78
2023/09/03 08:18:02;;;;;;;15.37;13.83;;;;;;;;;;5018946;28;20188;-78
2023/09/03 08:20:28;;;;;;;16.07;14.43;;;;;;;;;;5019276;28;20184;-77
2023/09/03 08:22:54;;;;;;;16.37;14.87;;;;;;;;;;5018854;28;20211;-77
2023/09/03 08:25:20;;;;;;;16.03;14.53;;;;;;;;;;5019400;28;20239;-78
2023/09/03 08:27:47;;;;;;;16.60;14.90;;;;;;;;;;5003899;28;20218;-78
2023/09/03 08:30:13;;;;;;;15.63;14.13;;;;;;;;;;5019414;28;20185;-77
2023/09/03 08:32:40;;;;;;;15.17;13.57;;;;;;;;;;5019088;28;20215;-77
2023/09/03 08:35:06;;;;;;;12.93;11.63;;;;;;;;;;5019352;28;20180;-78
2023/09/03 08:37:32;;;;;;;14.27;12.83;;;;;;;;;;5035444;28;20184;-78
2023/09/03 08:39:58;;;;;;;14.33;11.80;;;;;;;;;;5034251;28;20188;-77
2023/09/03 08:42:25;;;;;;;12.57;11.27;;;;;;;;;;5002045;28;20208;-78
2023/09/03 08:45:01;;;;;;;12.20;10.97;;;;;;;;;;5018288;28;20513;-76
2023/09/03 08:47:27;;;;;;;13.70;12.40;;;;;;;;;;5033936;28;20429;-77
2023/09/03 08:49:53;;;;;;;12.60;11.30;;;;;;;;;;5034395;28;20401;-76
2023/09/03 08:52:19;;;;;;;9.80;8.90;;;;;;;;;;5035853;28;20180;-76
2023/09/03 08:54:46;;;;;;;8.47;7.70;;;;;;;;;;5017843;28;20184;-76
2023/09/03 08:57:12;;;;;;;8.87;7.97;;;;;;;;;;5026014;28;20197;-77
2023/09/03 08:59:38;;;;;;;7.78;7.07;;;;;;;;;;5015426;28;20422;-76
2023/09/03 09:02:08;;;;;;;8.60;7.80;;;;;;;;;;5014015;28;20418;-76
2023/09/03 09:04:34;;;;;;;9.25;7.47;;;;;;;;;;5013800;28;20419;-76
2023/09/03 09:07:00;;;;;;;7.53;6.72;;;;;;;;;;5020956;28;20456;-76
2023/09/03 09:09:29;;;;;;;7.95;6.65;;;;;;;;;;5034544;28;20412;-76
2023/09/03 09:12:00;;;;;;;8.98;8.07;;;;;;;;;;5033394;28;20440;-77
2023/09/03 09:14:31;;;;;;;8.30;7.50;;;;;;;;;;5034117;28;20401;-77
2023/09/03 09:16:57;;;;;;;8.07;7.40;;;;;;;;;;5033934;28;20433;-76
2023/09/03 09:19:23;;;;;;;7.97;7.22;;;;;;;;;;5033505;28;20483;-77
2023/09/03 09:21:49;;;;;;;9.55;8.52;;;;;;;;;;5023607;28;20574;-76
2023/09/03 09:24:16;;;;;;;9.15;8.13;;;;;;;;;;5041983;28;20425;-77
2023/09/03 09:26:42;;;;;;;8.18;7.47;;;;;;;;;;5033405;28;20416;-77
2023/09/03 09:29:08;;;;;;;8.50;7.70;;;;;;;;;;5016960;28;20445;-77
2023/09/03 09:31:34;;;;;;;8.40;7.47;;;;;;;;;;5017358;28;20173;-77
2023/09/03 09:34:12;;;;;;;7.53;6.82;;;;;;;;;;5034324;28;20187;-77
2023/09/03 09:36:38;;;;;;;10.37;7.40;;;;;;;;;;5017328;28;20432;-77
2023/09/03 09:39:08;;;;;;;7.30;6.60;;;;;;;;;;5017648;28;20176;-77
2023/09/03 09:41:37;;;;;;;7.88;6.85;;;;;;;;;;5017106;28;20187;-77
2023/09/03 09:44:10;;;;;;;7.60;6.90;;;;;;;;;;5013998;28;20719;-77
2023/09/03 09:46:36;;;;;;;7.47;5.63;;;;;;;;;;5044014;28;20223;-77
2023/09/03 09:49:03;;;;;;;7.25;6.20;;;;;;;;;;5014611;28;20205;-77
2023/09/03 09:51:29;;;;;;;8.80;6.72;;;;;;;;;;5032881;28;20180;-77
2023/09/03 09:53:56;;;;;;;7.20;6.53;;;;;;;;;;5034701;28;20169;-77
2023/09/03 09:56:27;;;;;;;5.95;5.45;;;;;;;;;;5033232;28;20185;-77
2023/09/03 09:58:53;;;;;;;7.15;6.30;;;;;;;;;;5033634;28;20413;-77
2023/09/03 10:01:19;;;;;;;7.45;6.75;;;;;;;;;;5013267;28;20213;-77
2023/09/03 10:03:46;;;;;;;6.10;5.60;;;;;;;;;;5033142;28;20231;-77
2023/09/03 10:06:16;;;;;;;6.90;5.60;;;;;;;;;;5031782;28;20459;-77
2023/09/03 10:08:43;;;;;;;8.02;7.22;;;;;;;;;;5032659;28;20433;-77
2023/09/03 10:11:09;;;;;;;8.82;7.40;;;;;;;;;;5032822;28;20505;-77
2023/09/03 10:13:38;;;;;;;6.68;6.05;;;;;;;;;;5032295;28;20487;-79
2023/09/03 10:16:06;;;;;;;6.57;6.03;;;;;;;;;;5017796;28;20192;-79
2023/09/03 10:18:35;;;;;;;6.43;5.82;;;;;;;;;;5034324;28;20169;-79
2023/09/03 10:21:04;;;;;;;6.15;5.38;;;;;;;;;;5033769;28;20204;-79
2023/09/03 10:23:34;;;;;;;5.90;5.30;;;;;;;;;;5033344;28;20401;-79
2023/09/03 10:26:02;;;;;;;4.07;3.67;;;;;;;;;;5034151;28;20176;-79
2023/09/03 10:28:28;;;;;;;4.47;4.00;;;;;;;;;;5032794;28;20219;-79
2023/09/03 10:30:54;;;;;;;4.85;4.13;;;;;;;;;;5033902;28;20414;-77
2023/09/03 10:33:20;;;;;;;4.55;4.15;;;;;;;;;;5016685;28;20187;-77
2023/09/03 10:36:05;;;;;;;5.60;5.10;;;;;;;;;;5016582;28;20497;-77
2023/09/03 10:38:31;;;;;;;6.30;5.60;;;;;;;;;;5027865;28;20440;-77
2023/09/03 10:41:17;;;;;;;5.82;5.30;;;;;;;;;;5032326;28;20413;-77
2023/09/03 10:43:43;;;;;;;6.53;5.10;;;;;;;;;;5033157;28;20181;-77
2023/09/03 10:46:09;;;;;;;5.32;4.82;;;;;;;;;;5016664;28;20332;-77
2023/09/03 10:48:35;;;;;;;5.57;4.00;;;;;;;;;;5028193;28;20274;-77
2023/09/03 10:51:01;;;;;;;5.22;4.57;;;;;;;;;;5034160;28;20181;-77
2023/09/03 10:53:40;;;;;;;4.20;3.80;;;;;;;;;;5033023;28;20200;-77
2023/09/03 10:56:06;;;;;;;4.10;3.70;;;;;;;;;;5033194;28;20186;-77
2023/09/03 10:58:32;;;;;;;5.70;4.10;;;;;;;;;;5032794;28;20244;-75
2023/09/03 11:01:34;;;;;;;4.25;3.70;;;;;;;;;;5032829;28;20183;-78
2023/09/03 11:04:02;;;;;;;6.00;4.55;;;;;;;;;;4962779;28;20215;-79
2023/09/03 11:06:31;;;;;;;5.90;4.15;;;;;;;;;;5019044;28;20200;-80
2023/09/03 11:09:00;;;;;;;6.22;3.72;;;;;;;;;;5032911;28;20273;-79
2023/09/03 11:11:28;;;;;;;4.20;3.90;;;;;;;;;;5032583;28;20231;-80
2023/09/03 11:13:55;;;;;;;3.67;3.15;;;;;;;;;;5033453;28;20176;-79
2023/09/03 11:16:28;;;;;;;3.13;2.83;;;;;;;;;;5016391;28;20204;-79
2023/09/03 11:18:54;;;;;;;3.80;3.40;;;;;;;;;;5033202;28;20187;-77
2023/09/03 11:21:23;;;;;;;4.00;2.67;;;;;;;;;;5030040;28;20173;-76
2023/09/03 11:24:05;;;;;;;2.92;2.60;;;;;;;;;;5029680;28;20181;-76
2023/09/03 11:26:31;;;;;;;2.80;2.30;;;;;;;;;;5071767;22;20247;-78
2023/09/03 11:28:58;;;;;;;29.90;3.60;;;;;;;;;;5069320;28;20208;-78
2023/09/03 11:31:25;;;;;;;14.20;2.80;;;;;;;;;;5053040;28;20172;-78
2023/09/03 11:33:51;;;;;;;4.32;2.00;;;;;;;;;;5068949;28;20180;-78
2023/09/03 11:36:21;;;;;;;6.18;2.58;;;;;;;;;;5085500;28;20172;-76
2023/09/03 11:38:51;;;;;;;2.92;2.50;;;;;;;;;;5068465;28;20176;-76
2023/09/03 11:41:20;;;;;;;2.97;2.10;;;;;;;;;;5072448;28;20180;-76
2023/09/03 11:43:47;;;;;;;3.08;2.60;;;;;;;;;;5072558;28;20234;-76
2023/09/03 11:46:14;;;;;;;4.47;2.17;;;;;;;;;;5071686;28;20215;-76
2023/09/03 11:48:40;;;;;;;18.67;3.35;;;;;;;;;;5073460;28;20196;-76
2023/09/03 11:51:06;;;;;;;4.97;1.98;;;;;;;;;;5053992;28;20215;-76
2023/09/03 11:53:42;;;;;;;2.15;1.40;;;;;;;;;;5070318;28;20195;-80
2023/09/03 11:56:12;;;;;;;2.08;1.38;;;;;;;;;;5067863;28;20191;-79
2023/09/03 11:58:39;;;;;;;1.50;1.40;;;;;;;;;;5036122;28;20235;-79
2023/09/03 12:01:05;;;;;;;3.83;2.75;;;;;;;;;;5069116;28;20203;-79
2023/09/03 12:03:31;;;;;;;3.97;2.42;;;;;;;;;;5055587;28;20179;-79
2023/09/03 12:05:57;;;;;;;2.85;2.55;;;;;;;;;;5036534;28;20181;-79
2023/09/03 12:08:23;;;;;;;2.22;2.03;;;;;;;;;;5055396;28;20211;-79
2023/09/03 12:10:50;;;;;;;3.08;2.30;;;;;;;;;;5040217;28;20188;-78
2023/09/03 12:13:33;;;;;;;3.30;2.20;;;;;;;;;;5035182;28;20203;-78
2023/09/03 12:16:03;;;;;;;2.65;1.80;;;;;;;;;;5018742;28;20184;-78
2023/09/03 12:18:29;;;;;;;2.47;2.13;;;;;;;;;;5018271;28;20185;-78
2023/09/03 12:20:55;;;;;;;2.97;1.98;;;;;;;;;;5050822;28;20195;-78
2023/09/03 12:23:21;;;;;;;2.40;1.80;;;;;;;;;;5033608;28;20246;-78
2023/09/03 12:25:47;;;;;;;3.67;1.92;;;;;;;;;;5032428;28;20193;-79
2023/09/03 12:28:13;;;;;;;3.03;1.80;;;;;;;;;;5047702;28;20225;-79
2023/09/03 12:30:58;;;;;;;4.30;1.70;;;;;;;;;;5050563;28;20173;-79
2023/09/03 12:33:25;;;;;;;2.33;1.60;;;;;;;;;;5064882;28;20267;-77
2023/09/03 12:36:08;;;;;;;1.95;1.52;;;;;;;;;;5033800;28;20405;-76
2023/09/03 12:39:10;;;;;;;1.80;1.60;;;;;;;;;;5015946;28;20421;-76
2023/09/03 12:41:37;;;;;;;1.83;1.50;;;;;;;;;;5003780;28;20412;-76
2023/09/03 12:44:07;;;;;;;2.00;1.33;;;;;;;;;;5017207;28;20416;-77
2023/09/03 12:46:34;;;;;;;2.17;1.33;;;;;;;;;;5014961;28;20442;-77
2023/09/03 12:49:01;;;;;;;1.95;1.60;;;;;;;;;;5015699;28;20431;-77
2023/09/03 12:51:27;;;;;;;2.50;1.80;;;;;;;;;;5032019;28;20515;-76
2023/09/03 12:53:53;;;;;;;2.08;1.45;;;;;;;;;;5048307;28;20432;-76
2023/09/03 12:56:19;;;;;;;1.60;1.30;;;;;;;;;;5050565;28;20410;-76
2023/09/03 12:58:46;;;;;;;1.83;1.50;;;;;;;;;;5044152;28;20411;-76
2023/09/03 13:01:12;;;;;;;2.40;1.50;;;;;;;;;;5047148;28;20431;-77
2023/09/03 13:03:38;;;;;;;1.73;1.50;;;;;;;;;;5041149;28;20421;-78
2023/09/03 13:06:04;;;;;;;2.50;1.40;;;;;;;;;;5013285;28;20462;-78
2023/09/03 13:08:32;;;;;;;2.28;1.52;;;;;;;;;;5030552;28;20438;-77
2023/09/03 13:10:59;;;;;;;1.90;1.60;;;;;;;;;;5046583;28;20407;-78
2023/09/03 13:13:25;;;;;;;2.75;1.40;;;;;;;;;;5057818;28;20414;-78
2023/09/03 13:15:51;;;;;;;2.30;1.70;;;;;;;;;;5029569;28;20427;-79
2023/09/03 13:18:17;;;;;;;2.28;1.70;;;;;;;;;;5062981;28;20421;-79
2023/09/03 13:20:43;;;;;;;2.00;1.80;;;;;;;;;;5018881;28;20436;-79
2023/09/03 13:23:10;;;;;;;2.65;1.80;;;;;;;;;;5050033;28;20432;-79
2023/09/03 13:25:37;;;;;;;2.38;1.88;;;;;;;;;;5086035;28;20404;-78
2023/09/03 13:28:04;;;;;;;1.75;1.60;;;;;;;;;;5086317;28;20435;-79
2023/09/03 13:30:30;;;;;;;2.38;1.60;;;;;;;;;;5086226;28;20449;-79
2023/09/03 13:32:56;;;;;;;1.90;1.60;;;;;;;;;;5087322;28;20180;-76
2023/09/03 13:35:22;;;;;;;2.30;1.70;;;;;;;;;;5086606;28;20522;-76
2023/09/03 13:37:48;;;;;;;2.92;1.40;;;;;;;;;;5069712;28;20462;-76
2023/09/03 13:40:14;;;;;;;2.60;1.70;;;;;;;;;;5070313;28;20276;-76
2023/09/03 13:42:41;;;;;;;1.52;1.30;;;;;;;;;;5070305;28;20180;-76
2023/09/03 13:45:07;;;;;;;1.75;1.20;;;;;;;;;;5053434;28;20176;-76
2023/09/03 13:47:33;;;;;;;1.92;1.40;;;;;;;;;;5086895;28;20246;-76
2023/09/03 13:49:59;;;;;;;2.60;1.40;;;;;;;;;;5069952;28;20180;-76
2023/09/03 13:52:27;;;;;;;2.60;1.40;;;;;;;;;;5069900;28;20187;-76
2023/09/03 13:54:53;;;;;;;2.22;1.50;;;;;;;;;;5086901;28;20183;-76
2023/09/03 13:57:19;;;;;;;1.48;1.38;;;;;;;;;;5069914;28;20175;-77
2023/09/03 13:59:47;;;;;;;2.20;1.45;;;;;;;;;;5086688;28;20183;-76
2023/09/03 14:02:13;;;;;;;2.05;1.45;;;;;;;;;;5069731;28;20190;-76
2023/09/03 14:04:39;;;;;;;2.92;1.60;;;;;;;;;;5069343;28;20420;-76
2023/09/03 14:07:05;;;;;;;1.50;1.40;;;;;;;;;;5069542;28;20184;-77
2023/09/03 14:09:31;;;;;;;1.40;1.30;;;;;;;;;;5053952;28;20176;-76
2023/09/03 14:11:57;;;;;;;1.52;1.30;;;;;;;;;;5052884;28;20179;-76
2023/09/03 14:14:23;;;;;;;1.30;1.20;;;;;;;;;;5069864;28;20187;-76
2023/09/03 14:16:49;;;;;;;2.50;1.30;;;;;;;;;;5086221;28;20176;-76
2023/09/03 14:19:15;;;;;;;1.33;1.20;;;;;;;;;;5086238;28;20186;-76
2023/09/03 14:21:41;;;;;;;1.35;1.25;;;;;;;;;;5053847;28;20180;-76
2023/09/03 14:24:07;;;;;;;1.45;1.23;;;;;;;;;;5069533;28;20190;-78
2023/09/03 14:26:34;;;;;;;2.15;1.40;;;;;;;;;;5052664;28;20223;-78
2023/09/03 14:29:00;;;;;;;2.08;1.40;;;;;;;;;;5052863;28;20257;-78
2023/09/03 14:31:26;;;;;;;1.88;1.40;;;;;;;;;;5069640;28;20203;-78